Historyczne dane pomiarowe

Dodano dane terminowe – wersja testowa.

Dane z okresu 1951-2019

Wersja bazy: 1.34 [2019-03-16, lista zmian], aktualizacja planowana na 2019-04-15

Dane meteo z obszaru Polski uzyskane na podstawie danych udostępnionych przez Instytut Meteorologii i Gospodarki Wodnej – Państwowy Instytut Badawczy.

 

Wybierz Datę:    

       

TemperaturaWilgotnośćWiatrCiśnienieOpadyŚniegCzas trwania zjawisk
 Stacja t tx tn tng RH VA  wxwx mslp ppp RRR   cm mm wxwxwxwxwxwxwx
1961-08-14 14.5 19.7 10.7 8.3 85.8- 5.0 1.3---- 0.0------------
1961-08-13 13.5 18.3 12.0 13.9 98.5- 8.0 3.0---- 9.1------------
1961-08-12 19.0 21.9 17.3 14.0 92.5- 7.7 0.7---- 7.5------------
1961-08-11 23.8 33.3 19.0 15.7 80.0- 3.7 3.0---- 0.0------------
1961-08-10 24.1 29.2 18.0 16.0 83.3- 3.0 2.7---- 0.0------------
1961-08-09 22.0 29.8 14.0 12.0 80.3- 3.0 1.3---- 3.7------------
1961-08-08 19.5 22.4 16.2 13.6 72.8- 6.7 1.7---- 0.0------------
1961-08-07 22.8 31.3 16.1 11.2 72.3- 2.7 3.0---- 0.9------------
1961-08-06 23.6 31.0 11.5 7.4 65.5- 0.3 3.0---- 0.0------------
1961-08-05 17.7 24.0 13.8 9.7 82.3- 4.3 2.0---- 0.0------------
1961-08-04 16.5 22.0 9.7 5.3 79.5- 4.7 1.7---- 0.0------------
1961-08-03 19.0 24.8 11.8 7.2 78.8- 6.0 2.0---- 0.4------------
1961-08-02 17.8 26.3 6.6 3.2 81.5- 0.7 1.3---- 0.0------------
1961-08-01 15.0 20.8 12.0 9.6 80.5- 4.0 5.3---- 0.0------------
1961-07-31 14.6 18.4 12.1 12.1 86.5- 4.3 5.3---- 0.1------------
1961-07-30 14.0 16.3 12.6 11.4 98.0- 8.0 4.0---- 19.6------------
1961-07-29 14.7 18.3 13.7 13.0 97.3- 8.0 3.0---- 13.9------------
1961-07-28 20.6 28.4 15.3 13.3 81.3- 6.7 3.3---- 3.0------------
1961-07-27 20.8 26.7 12.8 8.8 65.3- 5.7 4.7---- 2.3------------
1961-07-26 17.1 21.0 12.0 10.9 68.5- 7.0 3.0---- 0.0------------
1961-07-25 14.7 18.9 10.2 7.0 76.3- 6.3 2.7---- 0.0------------
1961-07-24 14.2 19.7 8.2 3.6 80.5- 6.0 2.3---- 0.0------------
1961-07-23 15.0 20.2 11.1 6.9 81.5- 3.7 2.3---- 0.0------------
1961-07-22 14.4 20.1 12.0 9.6 88.5- 4.3 3.3---- 2.0------------
1961-07-21 16.2 22.1 13.0 11.3 85.3- 5.3 3.3---- 3.8------------
1961-07-20 16.7 22.5 6.2 3.5 80.0- 5.3 1.3---- 0.0------------
1961-07-19 14.3 20.6 6.5 3.3 89.5- 4.7 0.3---- 0.1------------
1961-07-18 13.5 19.2 8.4 4.2 87.5- 2.7 2.3---- 0.2------------
1961-07-17 15.7 22.0 8.3 5.1 87.0- 4.7 1.7---- 3.3------------
1961-07-16 15.8 23.3 9.8 6.2 86.0- 5.0 4.0---- 0.2------------
1961-07-15 18.0 23.6 7.0 3.4 74.3- 4.0 2.3---- 3.1------------
1961-07-14 15.4 24.3 13.6 13.6 78.8- 5.0 4.0---- 0.0------------
1961-07-13 24.2 29.7 12.0 8.7 60.8- 6.3 5.3---- 1.4------------
1961-07-12 19.3 25.7 7.7 5.6 74.5- 3.0 1.3---- 1.2------------
1961-07-11 15.4 21.7 8.2 5.3 71.5- 2.7 1.7---- 0.0------------
1961-07-10 14.2 20.3 10.2 8.6 84.8- 6.3 4.0---- 0.0------------
1961-07-09 16.3 23.6 5.3 3.0 71.0- 5.0 2.0---- 0.8------------
1961-07-08 14.2 20.8 8.3 5.1 76.5- 4.3 0.7---- 0.0------------
1961-07-07 14.0 18.5 8.2 5.2 84.0- 6.0 2.3---- 0.0------------
1961-07-06 13.2 16.7 6.1 4.1 74.8- 4.7 3.3---- 0.4------------
1961-07-05 15.7 19.5 14.0 11.8 78.3- 5.7 3.3---- 0.0------------
1961-07-04 21.7 29.3 15.3 11.6 79.5- 4.3 3.0---- 9.8------------
1961-07-03 22.6 30.4 10.7 7.9 69.8- 0.0 0.7---- 0.0------------
1961-07-02 20.5 28.0 8.8 6.1 75.5- 0.0 0.7---- 0.0------------
1961-07-01 20.2 26.4 9.8 7.5 62.3- 1.0 1.3---- 0.0------------
1961-06-30 18.1 24.2 8.3 5.7 79.3- 0.7 1.3---- 0.0------------
1961-06-29 15.8 19.9 7.9 4.9 74.0- 5.3 3.0---- 0.0------------
1961-06-28 14.1 23.9 12.1 16.4 90.8- 5.7 3.3---- 2.8------------
1961-06-27 25.3 32.7 16.2 14.2 61.3- 3.0 4.0---- 12.2------------
1961-06-26 21.8 31.0 11.9 8.2 78.5- 3.3 3.0---- 6.1------------
1961-06-25 20.9 28.6 11.1 7.4 73.0- 3.0 3.0---- 0.0------------
1961-06-24 18.2 24.9 10.1 7.2 66.3- 1.7 3.7---- 0.0------------
1961-06-23 18.0 22.6 15.0 10.2 85.8- 7.0 2.0---- 4.7------------
1961-06-22 16.7 23.4 10.6 7.2 62.0- 0.7 2.0---- 0.0------------
1961-06-21 16.7 23.7 4.4 2.1 65.3- 2.0 2.0---- 0.0------------
1961-06-20 15.1 20.7 9.8 5.5 60.3- 1.3 2.3---- 0.0------------
1961-06-19 19.0 23.9 12.9 9.0 83.3- 3.3 3.0---- 0.0------------
1961-06-18 19.5 25.7 8.4 5.3 67.5- 3.3 1.3---- 0.0------------
1961-06-17 15.9 22.5 6.2 3.3 73.5- 3.0 2.7---- 0.0------------
1961-06-16 13.9 18.5 8.5 4.8 79.3- 4.7 3.0---- 0.0------------
255.9 ms

 

Źródłem pochodzenia danych jest Instytut Meteorologii i Gospodarki Wodnej – Państwowy Instytut Badawczy. Dane Instytutu Meteorologii i Gospodarki Wodnej – Państwowego Instytutu Badawczego zostały przetworzone.

Dane źródłowe można odnaleźć na stronie https://dane.imgw.pl